Main page
METAR-TAF:

METAR-TAF

Airports :

Rivera International Airport

Rivera, Uruguay

latitude: 30-53S, longitude: 055-32W, elevation: 205 m

METAR: missing

Time: 00:06 (03:06 UTC)

Forecast

The report was made 3 hours and 31 minutes ago, at 23:35 UTC
Forecast valid from 26 at 00 UTC to 26 at 24 UTC
Wind 5 kt from the East
Visibility 10 km or more
no clouds below 1500 m and no cumulonimbus
Temporary
from 26 at 01 UTC to 26 at 11 UTC
Visibility: 2000 m
Broken clouds at a height of 800 ft
mist
Temporary
from 26 at 03 UTC to 26 at 12 UTC
Visibility: 0500 m
Overcast at a height of 300 ft
fog

TAF: SURV 252335Z 2600/2624 09005KT CAVOK TX24/2618Z TN09/2610Z TEMPO 2601/2611 2000 BR BKN008 TEMPO 2603/2612 0500 FG OVC003

Weather observations and forecasts of more than 4000 airports (METAR and TAF reports).

The available stations are represented by yellow and red dots on the map.

Hover mouse over dot to see the name of the station.

Then click to see weather observations and forecasts.

To change the map : click on the green buttons with a black cross to zoom in, on the green button with a dash to zoom out, or on the green arrows for adjacent maps.


METAR-TAF: